Desert Aire, Washington
Current Conditions -  °F | °C
As of 4:46 AM on Saturday 25 Oct 2014 (Local Time) from K1YT Reporting Station
Scattered Clouds Scattered Clouds  
Wind Chill:   Ceiling: Unl
Heat Index:   Visibility: 10mi
Dew Point:   Wind: 8mph
Humidity: 87%   Direction: 70°ENE
Pressure: 29.75"   Gusts: NA
Location:  46.6873°N, 119.887°W
Report Text: K1YT 251146Z AUTO 07007KT 10SM SCT026 09/07 A2975 RMK AO2
Loading
Personal Weather Stations






























Interactive Weather Map
Tropical Storm Tracking
New forecast layout! Learn more

10-Day Weather Forecast

Advertisements
Track Severe Weather on mobile